Weather at Cairo International Airport

Public forecast

Using degrees Celsius for public forecast. Weather courtesy of forecast.io.

Current aviation weather report (METAR) for Cairo International Airport

Retrieved 2021/03/01 17:30 UTC (1 hour ago):

HECA 011730Z 32009KT 9999 SCT025 17/09 Q1020 NOSIG

Aviation forecast (TAF) for Cairo International Airport

Retrieved 2021/03/01 18:43 UTC (17 minutes ago):

TAF HECA 011700Z 0118/0224 32008KT 9999 SCT025 TEMPO 0200/0207 VRB03KT 3000 BR